Time,TemperatureF,DewpointF,PressureIn,WindDirection,WindDirectionDegrees,WindSpeedMPH,WindSpeedGustMPH,Humidity,HourlyPrecipIn,Conditions,Clouds,dailyrainin,SolarRadiationWatts/m^2,SoftwareType,DateUTC
2014-02-01 00:03:00,22.0,16.0,-100.00,SE,134,1.0,3.0,78,0.00,,,0.06,0.000000,,2014-02-01 05:03:00,
2014-02-01 00:12:00,22.0,16.0,-100.00,SE,134,1.0,3.0,78,0.00,,,0.06,0.000000,,2014-02-01 05:12:00,
2014-02-01 00:22:00,22.0,16.0,-100.00,SE,134,1.0,3.0,78,0.00,,,0.06,0.000000,,2014-02-01 05:22:00,
2014-02-01 00:53:00,23.0,20.0,-100.00,SW,225,1.0,2.0,88,0.00,,,0.06,0.000000,,2014-02-01 05:53:00,
2014-02-01 01:03:00,23.0,20.0,-100.00,SW,225,1.0,2.0,88,0.00,,,0.06,0.000000,,2014-02-01 06:03:00,
2014-02-01 01:12:00,23.0,20.0,-100.00,SW,225,1.0,2.0,88,0.00,,,0.06,0.000000,,2014-02-01 06:12:00,
2014-02-01 01:22:00,23.0,20.0,-100.00,SW,225,1.0,2.0,88,0.00,,,0.06,0.000000,,2014-02-01 06:22:00,
2014-02-01 01:52:00,21.0,18.0,-100.00,North,-999,0.0,0.0,88,0.00,,,0.06,0.000000,,2014-02-01 06:52:00,
2014-02-01 02:02:00,21.0,18.0,-100.00,North,-999,0.0,0.0,88,0.00,,,0.06,0.000000,,2014-02-01 07:02:00,
2014-02-01 02:12:00,21.0,18.0,-100.00,North,-999,0.0,0.0,88,0.00,,,0.06,0.000000,,2014-02-01 07:12:00,
2014-02-01 02:22:00,21.0,18.0,-100.00,North,-999,0.0,0.0,88,0.00,,,0.06,0.000000,,2014-02-01 07:22:00,
2014-02-01 02:53:00,21.0,19.0,-100.00,North,-999,0.0,2.0,90,0.00,,,0.06,0.000000,,2014-02-01 07:53:00,
2014-02-01 03:02:00,21.0,19.0,-100.00,North,-999,0.0,2.0,90,0.00,,,0.06,0.000000,,2014-02-01 08:02:00,
2014-02-01 03:11:00,21.0,19.0,-100.00,North,-999,0.0,2.0,90,0.00,,,0.06,0.000000,,2014-02-01 08:11:00,
2014-02-01 03:22:00,21.0,19.0,-100.00,North,-999,0.0,2.0,90,0.00,,,0.06,0.000000,,2014-02-01 08:22:00,
2014-02-01 03:52:00,22.0,18.0,-100.00,North,-999,0.0,2.0,86,0.00,,,0.06,0.000000,,2014-02-01 08:52:00,
2014-02-01 04:02:00,22.0,18.0,-100.00,North,-999,0.0,2.0,86,0.00,,,0.06,0.000000,,2014-02-01 09:02:00,
2014-02-01 04:12:00,22.0,18.0,-100.00,North,-999,0.0,2.0,86,0.00,,,0.06,0.000000,,2014-02-01 09:12:00,
2014-02-01 04:22:00,22.0,18.0,-100.00,North,-999,0.0,2.0,86,0.00,,,0.06,0.000000,,2014-02-01 09:22:00,
2014-02-01 04:53:00,22.0,18.0,-100.00,North,-999,0.0,2.0,86,0.00,,,0.06,0.000000,,2014-02-01 09:53:00,
2014-02-01 05:03:00,22.0,18.0,-100.00,North,-999,0.0,2.0,86,0.00,,,0.06,0.000000,,2014-02-01 10:03:00,
2014-02-01 05:12:00,22.0,18.0,-100.00,North,-999,0.0,2.0,86,0.00,,,0.06,0.000000,,2014-02-01 10:12:00,
2014-02-01 05:23:00,22.0,18.0,-100.00,North,-999,0.0,2.0,86,0.00,,,0.06,0.000000,,2014-02-01 10:23:00,
2014-02-01 05:53:00,20.0,17.0,-100.00,North,-999,0.0,2.0,88,0.00,,,0.06,0.000000,,2014-02-01 10:53:00,
2014-02-01 06:03:00,20.0,17.0,-100.00,North,-999,0.0,2.0,88,0.00,,,0.06,0.000000,,2014-02-01 11:03:00,
2014-02-01 06:12:00,20.0,17.0,-100.00,North,-999,0.0,2.0,88,0.00,,,0.06,0.000000,,2014-02-01 11:12:00,
2014-02-01 06:22:00,20.0,17.0,-100.00,North,-999,0.0,2.0,88,0.00,,,0.06,0.000000,,2014-02-01 11:22:00,
2014-02-01 06:53:00,21.0,19.0,-100.00,North,-999,0.0,3.0,91,0.00,,,0.06,0.000000,,2014-02-01 11:53:00,
2014-02-01 07:02:00,21.0,19.0,-100.00,North,-999,0.0,3.0,91,0.00,,,0.06,0.000000,,2014-02-01 12:02:00,
2014-02-01 07:12:00,21.0,19.0,-100.00,North,-999,0.0,3.0,91,0.00,,,0.06,0.000000,,2014-02-01 12:12:00,
2014-02-01 07:22:00,21.0,19.0,-100.00,North,-999,0.0,3.0,91,0.00,,,0.06,0.000000,,2014-02-01 12:22:00,
2014-02-01 07:52:00,20.0,18.0,-100.00,North,-999,0.0,0.0,92,0.00,,,0.06,4.000000,,2014-02-01 12:52:00,
2014-02-01 08:02:00,20.0,18.0,-100.00,North,-999,0.0,0.0,92,0.00,,,0.06,4.000000,,2014-02-01 13:02:00,
2014-02-01 08:11:00,20.0,18.0,-100.00,North,-999,0.0,0.0,92,0.00,,,0.06,4.000000,,2014-02-01 13:11:00,
2014-02-01 08:22:00,20.0,18.0,-100.00,North,-999,0.0,0.0,92,0.00,,,0.06,4.000000,,2014-02-01 13:22:00,
2014-02-01 09:12:00,32.0,29.0,-100.00,North,351,2.0,4.0,88,0.00,,,0.06,88.000000,,2014-02-01 14:12:00,
2014-02-01 09:22:00,32.0,29.0,-100.00,North,351,2.0,4.0,88,0.00,,,0.06,88.000000,,2014-02-01 14:22:00,
2014-02-01 10:11:00,39.0,30.0,-100.00,East,97,2.0,4.0,70,0.00,,,0.06,247.000000,,2014-02-01 15:11:00,
2014-02-01 10:22:00,39.0,30.0,-100.00,East,97,2.0,4.0,70,0.00,,,0.06,247.000000,,2014-02-01 15:22:00,
2014-02-01 10:54:00,39.0,31.0,-100.00,ESE,103,8.0,10.0,74,0.00,,,0.06,361.000000,,2014-02-01 15:54:00,
2014-02-01 11:03:00,39.0,31.0,-100.00,ESE,103,8.0,10.0,74,0.00,,,0.06,361.000000,,2014-02-01 16:03:00,
2014-02-01 11:13:00,39.0,31.0,-100.00,ESE,103,8.0,10.0,74,0.00,,,0.06,361.000000,,2014-02-01 16:13:00,
2014-02-01 11:23:00,39.0,31.0,-100.00,ESE,103,8.0,10.0,74,0.00,,,0.06,361.000000,,2014-02-01 16:23:00,
2014-02-01 11:53:00,42.0,35.0,-100.00,ESE,102,8.0,10.0,75,0.00,,,0.05,457.000000,,2014-02-01 16:53:00,
2014-02-01 12:02:00,42.0,35.0,-100.00,ESE,102,8.0,10.0,75,0.00,,,0.05,457.000000,,2014-02-01 17:02:00,
2014-02-01 12:11:00,42.0,35.0,-100.00,ESE,102,8.0,10.0,75,0.00,,,0.05,457.000000,,2014-02-01 17:11:00,
2014-02-01 12:23:00,42.0,35.0,-100.00,ESE,102,8.0,10.0,75,0.00,,,0.05,457.000000,,2014-02-01 17:23:00,
2014-02-01 12:53:00,43.0,35.0,-100.00,East,81,7.0,12.0,74,0.00,,,0.04,546.000000,,2014-02-01 17:53:00,
2014-02-01 13:02:00,43.0,35.0,-100.00,East,81,7.0,12.0,74,0.00,,,0.04,546.000000,,2014-02-01 18:02:00,
2014-02-01 13:12:00,43.0,35.0,-100.00,East,81,7.0,12.0,74,0.00,,,0.04,546.000000,,2014-02-01 18:12:00,
2014-02-01 13:22:00,43.0,35.0,-100.00,East,81,7.0,12.0,74,0.00,,,0.04,546.000000,,2014-02-01 18:22:00,
2014-02-01 13:52:00,43.0,37.0,-100.00,ENE,73,8.0,10.0,78,0.00,,,-99.99,512.000000,,2014-02-01 18:52:00,
2014-02-01 14:02:00,43.0,37.0,-100.00,ENE,73,8.0,10.0,78,0.00,,,-99.99,512.000000,,2014-02-01 19:02:00,
2014-02-01 14:11:00,43.0,37.0,-100.00,ENE,73,8.0,10.0,78,0.00,,,-99.99,512.000000,,2014-02-01 19:11:00,
2014-02-01 14:22:00,43.0,37.0,-100.00,ENE,73,8.0,10.0,78,0.00,,,-99.99,512.000000,,2014-02-01 19:22:00,
2014-02-01 14:52:00,41.0,36.0,-100.00,East,100,6.0,9.0,83,0.00,,,0.00,448.000000,,2014-02-01 19:52:00,
2014-02-01 15:02:00,41.0,36.0,-100.00,East,100,6.0,9.0,83,0.00,,,0.00,448.000000,,2014-02-01 20:02:00,
2014-02-01 15:12:00,41.0,36.0,-100.00,East,100,6.0,9.0,83,0.00,,,0.00,448.000000,,2014-02-01 20:12:00,
2014-02-01 15:22:00,41.0,36.0,-100.00,East,100,6.0,9.0,83,0.00,,,0.00,448.000000,,2014-02-01 20:22:00,
2014-02-01 15:53:00,39.0,35.0,-100.00,East,93,7.0,10.0,84,0.00,,,0.00,323.000000,,2014-02-01 20:53:00,
2014-02-01 16:02:00,39.0,35.0,-100.00,East,93,7.0,10.0,84,0.00,,,0.00,323.000000,,2014-02-01 21:02:00,
2014-02-01 16:22:00,39.0,35.0,-100.00,East,93,7.0,10.0,84,0.00,,,0.00,323.000000,,2014-02-01 21:22:00,
2014-02-01 16:53:00,38.0,35.0,-100.00,ESE,105,7.0,10.0,88,0.00,,,0.00,170.000000,,2014-02-01 21:53:00,
2014-02-01 17:03:00,38.0,35.0,-100.00,ESE,105,7.0,10.0,88,0.00,,,0.00,170.000000,,2014-02-01 22:03:00,
2014-02-01 17:23:00,38.0,35.0,-100.00,ESE,105,7.0,10.0,88,0.00,,,0.00,170.000000,,2014-02-01 22:23:00,
2014-02-01 17:53:00,37.0,35.0,-100.00,ESE,108,4.0,8.0,94,0.00,,,0.00,40.000000,,2014-02-01 22:53:00,
2014-02-01 18:02:00,37.0,35.0,-100.00,ESE,108,4.0,8.0,94,0.00,,,0.00,40.000000,,2014-02-01 23:02:00,
2014-02-01 18:12:00,37.0,35.0,-100.00,ESE,108,4.0,8.0,94,0.00,,,0.00,40.000000,,2014-02-01 23:12:00,
2014-02-01 18:22:00,37.0,35.0,-100.00,ESE,108,4.0,8.0,94,0.00,,,0.00,40.000000,,2014-02-01 23:22:00,
2014-02-01 18:53:00,35.0,34.0,-100.00,East,94,2.0,6.0,97,0.00,,,0.00,1.000000,,2014-02-01 23:53:00,
2014-02-01 19:03:00,35.0,34.0,-100.00,East,94,2.0,6.0,97,0.00,,,0.00,1.000000,,2014-02-02 00:03:00,
2014-02-01 19:12:00,35.0,34.0,-100.00,East,94,2.0,6.0,97,0.00,,,0.00,1.000000,,2014-02-02 00:12:00,
2014-02-01 19:22:00,35.0,34.0,-100.00,East,94,2.0,6.0,97,0.00,,,0.00,1.000000,,2014-02-02 00:22:00,
2014-02-01 19:52:00,35.0,35.0,-100.00,ENE,68,3.0,4.0,100,0.00,,,0.00,0.000000,,2014-02-02 00:52:00,
2014-02-01 20:02:00,35.0,35.0,-100.00,ENE,68,3.0,4.0,100,0.00,,,0.00,0.000000,,2014-02-02 01:02:00,
2014-02-01 20:11:00,35.0,35.0,-100.00,ENE,68,3.0,4.0,100,0.00,,,0.00,0.000000,,2014-02-02 01:11:00,
2014-02-01 20:22:00,35.0,35.0,-100.00,ENE,68,3.0,4.0,100,0.00,,,0.00,0.000000,,2014-02-02 01:22:00,
2014-02-01 20:52:00,34.0,34.0,-100.00,ESE,107,1.0,4.0,100,0.00,,,0.00,0.000000,,2014-02-02 01:52:00,
2014-02-01 21:01:00,34.0,34.0,-100.00,ESE,107,1.0,4.0,100,0.00,,,0.00,0.000000,,2014-02-02 02:01:00,
2014-02-01 21:11:00,34.0,34.0,-100.00,ESE,107,1.0,4.0,100,0.00,,,0.00,0.000000,,2014-02-02 02:11:00,
2014-02-01 21:22:00,34.0,34.0,-100.00,ESE,107,1.0,4.0,100,0.00,,,0.00,0.000000,,2014-02-02 02:22:00,
2014-02-01 21:52:00,37.0,37.0,-100.00,ENE,72,1.0,5.0,100,0.00,,,0.00,0.000000,,2014-02-02 02:52:00,
2014-02-01 22:02:00,37.0,37.0,-100.00,ENE,72,1.0,5.0,100,0.00,,,0.00,0.000000,,2014-02-02 03:02:00,
2014-02-01 22:11:00,37.0,37.0,-100.00,ENE,72,1.0,5.0,100,0.00,,,0.00,0.000000,,2014-02-02 03:11:00,
2014-02-01 22:22:00,37.0,37.0,-100.00,ENE,72,1.0,5.0,100,0.00,,,0.00,0.000000,,2014-02-02 03:22:00,
2014-02-01 22:54:00,38.0,38.0,-100.00,North,-999,0.0,4.0,100,0.00,,,0.00,0.000000,,2014-02-02 03:54:00,
2014-02-01 23:03:00,-999.0,-99.9,-100.00,North,-999,0.0,4.0,-999,-99.99,,,-99.99,0.000000,,2014-02-02 04:03:00,
2014-02-01 23:13:00,38.0,38.0,-100.00,North,-999,0.0,4.0,100,0.00,,,0.00,0.000000,,2014-02-02 04:13:00,
2014-02-01 23:23:00,38.0,38.0,-100.00,North,-999,0.0,4.0,100,0.00,,,0.00,0.000000,,2014-02-02 04:23:00,
2014-02-01 23:53:00,38.0,38.0,-100.00,North,-999,0.0,1.0,100,0.00,,,0.00,0.000000,,2014-02-02 04:53:00,